Terminal Aerodrome Forecast
Issued by NWS

Home | Current Version | Previous Version | Text Only | Print | Product List | Glossary On
Versions: 1 2 3 4 5 6 7 8 9 10 11 12 13 14
000
FTUS42 KTAE 251128
TAFVLD
TAF
KVLD 251128Z 2512/2612 10005KT P6SM BKN007
     FM251300 15008KT P6SM BKN015
     FM251400 15008KT P6SM SCT035 SCT200
     FM251700 14007KT P6SM VCTS SCT025CB BKN050
      TEMPO 2519/2523 VRB15G25KT 3SM -TSRA BKN030CB
     FM260900 12004KT P6SM BKN007
      AMD NOT SKED=

USA.gov is the U.S. government's official web portal to all federal, state and local government web resources and services.